createdAt,value
2023-04-24T00:01:04.368Z,97617.66
2023-04-24T00:03:34.764Z,97590.22
2023-04-24T00:08:48.836Z,97595.78
2023-04-24T00:11:17.892Z,97585.31
2023-04-24T00:13:49.706Z,97600.75
2023-04-24T00:16:27.586Z,97592.28
2023-04-24T00:18:57.971Z,97593.88
2023-04-24T00:21:27.133Z,97585.66
2023-04-24T00:23:58.257Z,97580.56
2023-04-24T00:26:28.655Z,97585.19
2023-04-24T00:28:59.140Z,97588.53
2023-04-24T00:31:31.595Z,97575.34
2023-04-24T00:34:05.519Z,97567.44
2023-04-24T00:36:36.957Z,97585.63
2023-04-24T00:39:09.664Z,97576.91
2023-04-24T00:41:40.039Z,97578.22
2023-04-24T00:44:10.988Z,97576.97
2023-04-24T00:46:55.741Z,97564.16
2023-04-24T00:49:29.826Z,97576.44
2023-04-24T00:52:11.101Z,97575.03
2023-04-24T00:54:45.157Z,97571.00
2023-04-24T00:57:15.888Z,97571.81
2023-04-24T00:59:45.223Z,97569.69
2023-04-24T01:02:29.100Z,97563.72
2023-04-24T01:05:06.962Z,97568.78
2023-04-24T01:07:44.148Z,97571.47
2023-04-24T01:10:14.965Z,97561.03
2023-04-24T01:12:43.089Z,97546.91
2023-04-24T01:15:25.984Z,97560.28
2023-04-24T01:17:57.645Z,97560.69
2023-04-24T01:20:34.138Z,97564.28
2023-04-24T01:23:04.239Z,97566.28
2023-04-24T01:25:41.373Z,97558.06
2023-04-24T01:28:16.064Z,97559.91
2023-04-24T01:30:47.023Z,97547.88
2023-04-24T01:33:21.485Z,97563.38
2023-04-24T01:38:36.745Z,97547.38
2023-04-24T01:41:05.311Z,97547.06
2023-04-24T01:43:38.599Z,97548.00
2023-04-24T01:46:19.613Z,97551.50
2023-04-24T01:49:27.434Z,97541.03
2023-04-24T01:51:58.328Z,97548.38
2023-04-24T01:54:29.180Z,97543.28
2023-04-24T01:57:02.399Z,97542.34
2023-04-24T01:59:35.578Z,97484.78
2023-04-24T02:02:12.881Z,97533.53
2023-04-24T02:04:46.809Z,97532.56
2023-04-24T02:07:18.108Z,97507.03
2023-04-24T02:09:51.628Z,97531.38
2023-04-24T02:12:25.129Z,97528.63
2023-04-24T02:14:58.957Z,97529.53
2023-04-24T02:17:32.202Z,97527.50
2023-04-24T02:20:19.103Z,97518.25
2023-04-24T02:22:49.869Z,97511.63
2023-04-24T02:25:32.665Z,97495.03
2023-04-24T02:28:06.376Z,97497.19
2023-04-24T02:30:37.445Z,97498.38
2023-04-24T02:33:09.342Z,97492.47
2023-04-24T02:35:41.135Z,97485.38
2023-04-24T02:38:11.062Z,97488.78
2023-04-24T02:40:42.326Z,97479.75
2023-04-24T02:45:59.919Z,97477.94
2023-04-24T02:48:31.601Z,97468.38
2023-04-24T02:51:05.779Z,97478.41
2023-04-24T02:53:40.171Z,97477.59
2023-04-24T02:58:58.828Z,97474.72
2023-04-24T03:01:31.929Z,97465.56
2023-04-24T03:06:56.427Z,97457.50
2023-04-24T03:09:28.663Z,97458.53
2023-04-24T03:12:04.850Z,97478.13
2023-04-24T03:14:46.089Z,97460.56
2023-04-24T03:17:20.519Z,97449.03
2023-04-24T03:19:55.056Z,97463.97
2023-04-24T03:22:25.966Z,97468.00
2023-04-24T03:27:43.853Z,97465.59
2023-04-24T03:30:34.036Z,97462.03
2023-04-24T03:33:14.661Z,97465.56
2023-04-24T03:35:56.598Z,97445.78
2023-04-24T03:38:24.913Z,97465.91
2023-04-24T03:41:32.695Z,97453.28
2023-04-24T03:44:21.734Z,97451.66
2023-04-24T03:46:56.212Z,97457.09
2023-04-24T03:49:29.232Z,97449.50
2023-04-24T03:52:00.362Z,97448.31
2023-04-24T03:54:38.895Z,97446.38
2023-04-24T03:57:10.580Z,97453.19
2023-04-24T03:59:47.013Z,97420.81
2023-04-24T04:02:41.541Z,97450.91
2023-04-24T04:05:19.834Z,97452.78
2023-04-24T04:07:56.723Z,97449.09
2023-04-24T04:10:30.232Z,97448.16
2023-04-24T04:13:06.864Z,97448.00
2023-04-24T04:15:46.004Z,97440.50
2023-04-24T04:18:16.471Z,97450.31
2023-04-24T04:20:54.968Z,97451.53
2023-04-24T04:23:26.270Z,97453.72
2023-04-24T04:26:07.074Z,97449.84
2023-04-24T04:28:58.208Z,97463.09
2023-04-24T04:31:32.355Z,97457.91
2023-04-24T04:34:08.319Z,97468.34
2023-04-24T04:36:40.211Z,97470.31
2023-04-24T04:39:36.137Z,97464.78
2023-04-24T04:42:18.666Z,97468.69
2023-04-24T04:44:56.335Z,97465.91
2023-04-24T04:47:38.962Z,97462.22
2023-04-24T04:50:14.530Z,97456.19
2023-04-24T04:52:52.629Z,97448.44
2023-04-24T04:55:39.729Z,97452.88
2023-04-24T05:01:04.284Z,97459.09
2023-04-24T05:03:44.137Z,97465.19
2023-04-24T05:06:16.457Z,97469.56
2023-04-24T05:08:52.087Z,97453.31
2023-04-24T05:11:33.359Z,97471.78
2023-04-24T05:14:29.058Z,97471.94
2023-04-24T05:16:59.999Z,97469.66
2023-04-24T05:19:36.694Z,97467.03
2023-04-24T05:22:08.891Z,97452.69
2023-04-24T05:24:54.262Z,97468.59
2023-04-24T05:27:50.371Z,97478.66
2023-04-24T05:30:26.987Z,97475.88
2023-04-24T05:33:02.225Z,97472.19
2023-04-24T05:35:42.800Z,97477.25
2023-04-24T05:38:14.610Z,97482.22
2023-04-24T05:43:38.139Z,97478.28
2023-04-24T05:49:03.708Z,97481.84
2023-04-24T05:51:35.087Z,97470.06
2023-04-24T05:54:15.654Z,97472.41
2023-04-24T05:56:46.269Z,97466.09
2023-04-24T05:59:27.646Z,97467.47
2023-04-24T06:02:03.722Z,97470.84
2023-04-24T06:04:49.136Z,97470.16
2023-04-24T06:07:23.474Z,97462.88
2023-04-24T06:09:55.024Z,97465.44
2023-04-24T06:12:26.148Z,97443.38
2023-04-24T06:15:15.886Z,97461.41
2023-04-24T06:17:55.774Z,97445.34
2023-04-24T06:20:35.633Z,97433.19
2023-04-24T06:23:08.073Z,97424.53
2023-04-24T06:25:41.753Z,97449.97
2023-04-24T06:28:29.236Z,97423.72
2023-04-24T06:31:01.931Z,97444.03
2023-04-24T06:33:46.153Z,97437.78
2023-04-24T06:36:19.558Z,97441.47
2023-04-24T06:38:54.434Z,97442.50
2023-04-24T06:41:33.312Z,97444.94
2023-04-24T06:44:01.500Z,97450.47
2023-04-24T06:46:34.013Z,97428.97
2023-04-24T06:49:04.031Z,97448.97
2023-04-24T06:51:41.292Z,97434.53
2023-04-24T06:54:10.539Z,97441.41
2023-04-24T06:56:42.601Z,97441.31
2023-04-24T07:02:00.000Z,97434.50
2023-04-24T07:04:31.911Z,97423.66
2023-04-24T07:07:06.437Z,97418.66
2023-04-24T07:09:42.684Z,97426.69
2023-04-24T07:12:13.309Z,97434.84
2023-04-24T07:17:32.651Z,97430.50
2023-04-24T07:20:04.065Z,97422.16
2023-04-24T07:22:37.410Z,97428.97
2023-04-24T07:28:11.703Z,97440.66
2023-04-24T07:30:42.246Z,97441.31
2023-04-24T07:33:14.214Z,97449.59
2023-04-24T07:35:47.209Z,97442.28
2023-04-24T07:38:29.289Z,97442.63
2023-04-24T07:41:09.569Z,97415.63
2023-04-24T07:43:39.951Z,97438.72
2023-04-24T07:46:10.177Z,97431.75
2023-04-24T07:48:44.822Z,97434.75
2023-04-24T07:51:16.392Z,97440.56
2023-04-24T07:53:48.094Z,97435.47
2023-04-24T07:56:34.151Z,97436.47
2023-04-24T07:59:05.602Z,97425.44
2023-04-24T08:01:47.297Z,97435.84
2023-04-24T08:04:22.194Z,97434.09
2023-04-24T08:06:53.502Z,97438.41
2023-04-24T08:09:25.333Z,97429.25
2023-04-24T08:12:02.359Z,97436.78
2023-04-24T08:14:31.780Z,97422.09
2023-04-24T08:17:08.642Z,97429.06
2023-04-24T08:19:41.249Z,97413.03
2023-04-24T08:25:01.715Z,97429.00
2023-04-24T08:27:35.069Z,97436.97
2023-04-24T08:30:21.922Z,97431.31
2023-04-24T08:32:52.536Z,97431.41
2023-04-24T08:35:27.116Z,97435.88
2023-04-24T08:38:03.441Z,97435.16
2023-04-24T08:40:40.607Z,97439.56
2023-04-24T08:43:12.334Z,97431.50
2023-04-24T08:45:43.944Z,97438.88
2023-04-24T08:48:36.366Z,97437.88
2023-04-24T08:51:10.902Z,97374.22
2023-04-24T08:53:52.551Z,97431.91
2023-04-24T08:56:36.304Z,97437.38
2023-04-24T09:05:58.162Z,97441.84
2023-04-24T09:08:32.687Z,97434.22
2023-04-24T09:11:05.032Z,97382.56
2023-04-24T09:13:45.875Z,97439.69
2023-04-24T09:16:16.785Z,97436.19
2023-04-24T09:18:52.176Z,97419.38
2023-04-24T09:21:26.438Z,97419.06
2023-04-24T09:24:08.098Z,97421.72
2023-04-24T09:26:42.166Z,97438.78
2023-04-24T09:29:13.275Z,97431.97
2023-04-24T09:31:46.420Z,97425.34
2023-04-24T09:34:16.894Z,97431.81
2023-04-24T09:36:47.048Z,97414.91
2023-04-24T09:39:18.815Z,97434.50
2023-04-24T09:41:53.859Z,97431.72
2023-04-24T09:44:44.471Z,97433.94
2023-04-24T09:47:22.227Z,97429.56
2023-04-24T09:49:53.866Z,97430.38
2023-04-24T09:52:26.703Z,97431.56
2023-04-24T09:55:13.789Z,97430.66
2023-04-24T09:58:08.921Z,97427.41
2023-04-24T10:00:43.518Z,97417.00
2023-04-24T10:03:34.332Z,97428.41
2023-04-24T10:06:12.171Z,97424.16
2023-04-24T10:08:58.585Z,97424.28
2023-04-24T10:11:34.508Z,97430.09
2023-04-24T10:14:05.639Z,97428.75
2023-04-24T10:16:38.772Z,97439.28
2023-04-24T10:19:08.479Z,97435.34
2023-04-24T10:21:44.957Z,97445.03
2023-04-24T10:24:23.729Z,97442.97
2023-04-24T10:27:07.758Z,97439.84
2023-04-24T10:29:49.644Z,97438.66
2023-04-24T10:32:21.762Z,97450.69
2023-04-24T10:34:51.983Z,97453.81
2023-04-24T10:37:26.789Z,97454.66
2023-04-24T10:40:07.899Z,97447.78
2023-04-24T10:42:40.025Z,97450.47
2023-04-24T10:45:20.947Z,97450.72
2023-04-24T10:48:05.639Z,97455.00
2023-04-24T10:50:59.019Z,97451.84
2023-04-24T10:53:32.053Z,97452.09
2023-04-24T10:56:15.922Z,97456.16
2023-04-24T10:58:50.567Z,97459.97
2023-04-24T11:01:43.218Z,97454.53
2023-04-24T11:04:29.630Z,97453.50
2023-04-24T11:07:10.267Z,97460.16
2023-04-24T11:09:44.709Z,97447.81
2023-04-24T11:12:24.489Z,97448.41
2023-04-24T11:15:01.017Z,97446.53
2023-04-24T11:17:44.964Z,97442.25
2023-04-24T11:23:20.989Z,97441.59
2023-04-24T11:26:35.476Z,97436.13
2023-04-24T11:29:22.316Z,97433.50
2023-04-24T11:31:54.281Z,97440.88
2023-04-24T11:34:28.290Z,97434.88
2023-04-24T11:37:04.227Z,97439.31
2023-04-24T11:39:40.171Z,97437.91
2023-04-24T11:42:11.770Z,97436.63
2023-04-24T11:45:00.817Z,97437.19
2023-04-24T11:47:31.506Z,97430.97
2023-04-24T11:50:01.668Z,97435.22
2023-04-24T11:52:37.062Z,97440.66
2023-04-24T11:55:15.763Z,97434.31
2023-04-24T11:58:01.220Z,97441.59
2023-04-24T12:00:35.618Z,97434.22
2023-04-24T12:03:33.068Z,97439.06
2023-04-24T12:06:11.839Z,97446.03
2023-04-24T12:08:42.023Z,97441.16
2023-04-24T12:11:16.144Z,97435.16
2023-04-24T12:13:48.105Z,97434.94
2023-04-24T12:16:18.378Z,97441.66
2023-04-24T12:19:04.558Z,97439.56
2023-04-24T12:21:38.566Z,97437.63
2023-04-24T12:24:13.429Z,97441.19
2023-04-24T12:26:45.603Z,97447.44
2023-04-24T12:29:34.490Z,97430.69
2023-04-24T12:32:06.760Z,97448.91
2023-04-24T12:34:34.780Z,97456.09
2023-04-24T12:40:18.687Z,97460.91
2023-04-24T12:42:58.034Z,97464.50
2023-04-24T12:45:32.709Z,97458.94
2023-04-24T12:48:16.031Z,97455.91
2023-04-24T12:50:53.597Z,97464.50
2023-04-24T12:53:31.084Z,97456.97
2023-04-24T12:56:01.631Z,97456.28
2023-04-24T13:01:18.895Z,97453.84
2023-04-24T13:04:05.825Z,97451.53
2023-04-24T13:06:46.584Z,97449.16
2023-04-24T13:09:20.816Z,97447.13
2023-04-24T13:11:50.443Z,97450.50
2023-04-24T13:14:19.011Z,97456.06
2023-04-24T13:16:50.085Z,97454.75
2023-04-24T13:19:20.641Z,97463.56
2023-04-24T13:22:04.172Z,97460.44
2023-04-24T13:24:39.738Z,97458.47
2023-04-24T13:27:16.862Z,97464.94
2023-04-24T13:29:49.317Z,97443.78
2023-04-24T13:32:20.937Z,97465.97
2023-04-24T13:34:53.199Z,97467.63
2023-04-24T13:37:23.235Z,97456.72
2023-04-24T13:40:03.297Z,97464.25
2023-04-24T13:45:24.657Z,97459.38
2023-04-24T13:48:12.694Z,97461.03
2023-04-24T13:50:44.704Z,97451.97
2023-04-24T13:53:16.662Z,97460.22
2023-04-24T13:55:52.362Z,97445.63
2023-04-24T13:58:22.368Z,97381.41
2023-04-24T14:00:54.044Z,97450.59
2023-04-24T14:03:27.296Z,97454.63
2023-04-24T14:06:10.503Z,97436.94
2023-04-24T14:08:45.826Z,97448.25
2023-04-24T14:11:16.612Z,97446.19
2023-04-24T14:13:49.789Z,97427.69
2023-04-24T14:16:19.230Z,97435.81
2023-04-24T14:18:54.914Z,97438.16
2023-04-24T14:21:32.036Z,97437.78
2023-04-24T14:24:02.731Z,97414.44
2023-04-24T14:26:48.771Z,97429.22
2023-04-24T14:29:20.804Z,97429.81
2023-04-24T14:31:55.087Z,97424.97
2023-04-24T14:34:34.004Z,97425.44
2023-04-24T14:40:15.375Z,97400.16
2023-04-24T14:42:54.824Z,97422.09
2023-04-24T14:45:27.526Z,97423.97
2023-04-24T14:48:01.327Z,97418.50
2023-04-24T14:50:32.415Z,97429.72
2023-04-24T14:53:04.168Z,97413.97
2023-04-24T14:55:40.244Z,97427.03
2023-04-24T14:58:15.465Z,97435.72
2023-04-24T15:00:53.169Z,97432.38
2023-04-24T15:03:28.376Z,97433.75
2023-04-24T15:06:07.902Z,97433.31
2023-04-24T15:08:40.680Z,97431.91
2023-04-24T15:11:09.213Z,97430.31
2023-04-24T15:13:40.421Z,97425.44
2023-04-24T15:16:11.685Z,97441.53
2023-04-24T15:18:42.378Z,97455.03
2023-04-24T15:21:26.636Z,97447.78
2023-04-24T15:24:00.457Z,97458.53
2023-04-24T15:26:48.007Z,97451.47
2023-04-24T15:29:24.751Z,97450.75
2023-04-24T15:32:05.137Z,97451.25
2023-04-24T15:34:36.024Z,97444.19
2023-04-24T15:37:06.802Z,97463.16
2023-04-24T15:39:38.612Z,97457.13
2023-04-24T15:42:18.964Z,97467.53
2023-04-24T15:44:49.500Z,97469.84
2023-04-24T15:50:15.176Z,97480.34
2023-04-24T15:52:59.227Z,97484.28
2023-04-24T15:55:41.098Z,97492.03
2023-04-24T15:58:15.009Z,97484.75
2023-04-24T16:00:53.049Z,97495.72
2023-04-24T16:03:26.623Z,97483.38
2023-04-24T16:05:57.613Z,97496.53
2023-04-24T16:08:28.517Z,97478.41
2023-04-24T16:11:03.586Z,97492.75
2023-04-24T16:13:35.229Z,97500.22
2023-04-24T16:16:09.105Z,97510.06
2023-04-24T16:18:42.670Z,97456.03
2023-04-24T16:21:19.526Z,97510.25
2023-04-24T16:23:55.456Z,97510.38
2023-04-24T16:26:39.456Z,97509.56
2023-04-24T16:29:09.677Z,97502.50
2023-04-24T16:31:40.007Z,97521.28
2023-04-24T16:34:08.930Z,97516.56
2023-04-24T16:36:38.904Z,97517.00
2023-04-24T16:39:13.943Z,97515.19
2023-04-24T16:41:44.419Z,97511.94
2023-04-24T16:44:21.258Z,97520.84
2023-04-24T16:46:51.850Z,97515.94
2023-04-24T16:52:08.173Z,97524.94
2023-04-24T16:54:39.929Z,97523.91
2023-04-24T16:57:14.026Z,97520.16
2023-04-24T16:59:46.748Z,97533.66
2023-04-24T17:02:15.752Z,97528.16
2023-04-24T17:04:51.799Z,97524.09
2023-04-24T17:07:37.311Z,97533.94
2023-04-24T17:10:11.942Z,97543.66
2023-04-24T17:12:48.741Z,97551.91
2023-04-24T17:15:32.758Z,97556.50
2023-04-24T17:18:02.551Z,97544.28
2023-04-24T17:20:33.626Z,97556.22
2023-04-24T17:23:12.363Z,97557.44
2023-04-24T17:25:42.603Z,97556.34
2023-04-24T17:28:32.799Z,97565.09
2023-04-24T17:33:47.212Z,97578.13
2023-04-24T17:36:25.747Z,97575.81
2023-04-24T17:39:00.404Z,97564.88
2023-04-24T17:41:43.329Z,97572.16
2023-04-24T17:44:16.603Z,97568.53
2023-04-24T17:46:49.560Z,97583.66
2023-04-24T17:49:18.891Z,97584.72
2023-04-24T17:51:49.151Z,97560.00
2023-04-24T17:54:20.376Z,97584.03
2023-04-24T17:56:56.988Z,97580.41
2023-04-24T17:59:30.208Z,97594.25
2023-04-24T18:02:02.804Z,97591.81
2023-04-24T18:04:43.563Z,97591.88
2023-04-24T18:07:18.792Z,97593.34
2023-04-24T18:09:51.243Z,97587.44
2023-04-24T18:12:20.208Z,97597.34
2023-04-24T18:15:13.017Z,97593.72
2023-04-24T18:17:43.280Z,97591.97
2023-04-24T18:20:28.080Z,97597.50
2023-04-24T18:23:03.400Z,97598.44
2023-04-24T18:25:48.696Z,97601.28
2023-04-24T18:28:16.907Z,97615.59
2023-04-24T18:30:50.578Z,97625.84
2023-04-24T18:33:32.697Z,97629.72
2023-04-24T18:36:15.653Z,97636.91
2023-04-24T18:38:46.443Z,97641.94
2023-04-24T18:41:21.747Z,97649.63
2023-04-24T18:43:52.439Z,97656.16
2023-04-24T18:46:22.767Z,97662.84
2023-04-24T18:48:57.845Z,97677.16
2023-04-24T18:51:26.880Z,97670.28
2023-04-24T18:53:57.069Z,97678.63
2023-04-24T18:56:27.921Z,97666.88
2023-04-24T18:58:58.729Z,97643.34
2023-04-24T19:01:29.706Z,97663.34
2023-04-24T19:04:00.703Z,97661.56
2023-04-24T19:06:32.297Z,97670.31
2023-04-24T19:09:12.539Z,97664.66
2023-04-24T19:11:47.629Z,97666.44
2023-04-24T19:14:19.564Z,97656.50
2023-04-24T19:16:50.925Z,97662.22
2023-04-24T19:19:18.939Z,97655.56
2023-04-24T19:21:50.628Z,97671.16
2023-04-24T19:24:23.870Z,97675.88
2023-04-24T19:26:56.578Z,97684.50
2023-04-24T19:29:26.933Z,97679.00
2023-04-24T19:32:02.321Z,97700.31
2023-04-24T19:34:38.369Z,97706.31
2023-04-24T19:39:53.317Z,97666.19
2023-04-24T19:42:42.006Z,97701.97
2023-04-24T19:45:15.739Z,97712.41
2023-04-24T19:47:49.744Z,97716.78
2023-04-24T19:50:23.993Z,97708.81
2023-04-24T19:52:52.167Z,97713.06
2023-04-24T19:55:20.298Z,97712.75
2023-04-24T19:57:54.823Z,97715.31
2023-04-24T20:00:27.661Z,97712.41
2023-04-24T20:03:04.700Z,97712.88
2023-04-24T20:05:44.816Z,97715.84
2023-04-24T20:08:20.142Z,97733.88
2023-04-24T20:10:52.848Z,97733.88
2023-04-24T20:13:29.888Z,97742.34
2023-04-24T20:16:00.689Z,97733.56
2023-04-24T20:18:34.731Z,97743.34
2023-04-24T20:21:12.492Z,97750.19
2023-04-24T20:23:46.983Z,97736.19
2023-04-24T20:29:01.214Z,97752.94
2023-04-24T20:31:29.368Z,97755.06
2023-04-24T20:34:00.678Z,97763.34
2023-04-24T20:36:34.040Z,97757.97
2023-04-24T20:39:13.321Z,97758.66
2023-04-24T20:41:45.180Z,97752.78
2023-04-24T20:44:16.455Z,97764.19
2023-04-24T20:46:49.784Z,97759.59
2023-04-24T20:49:21.265Z,97758.16
2023-04-24T20:51:50.149Z,97751.16
2023-04-24T20:54:23.865Z,97755.69
2023-04-24T20:56:54.388Z,97750.00
2023-04-24T20:59:28.095Z,97750.31
2023-04-24T21:01:55.804Z,97750.34
2023-04-24T21:04:39.932Z,97749.06
2023-04-24T21:07:18.385Z,97756.38
2023-04-24T21:09:53.020Z,97731.97
2023-04-24T21:12:21.147Z,97741.88
2023-04-24T21:15:03.869Z,97756.19
2023-04-24T21:17:33.978Z,97763.34
2023-04-24T21:20:18.732Z,97770.84
2023-04-24T21:22:49.595Z,97774.59
2023-04-24T21:25:20.482Z,97758.31
2023-04-24T21:27:49.072Z,97781.09
2023-04-24T21:30:24.471Z,97777.34
2023-04-24T21:33:06.519Z,97781.25
2023-04-24T21:35:43.734Z,97746.09
2023-04-24T21:38:22.344Z,97792.00
2023-04-24T21:40:56.041Z,97784.53
2023-04-24T21:43:49.810Z,97795.38
2023-04-24T21:46:20.732Z,97780.28
2023-04-24T21:49:04.141Z,97796.69
2023-04-24T21:51:34.578Z,97785.31
2023-04-24T21:54:17.322Z,97776.03
2023-04-24T21:56:48.688Z,97766.44
2023-04-24T21:59:19.488Z,97759.28
2023-04-24T22:01:57.439Z,97765.63
2023-04-24T22:04:29.050Z,97753.38
2023-04-24T22:07:01.882Z,97760.13
2023-04-24T22:12:26.480Z,97758.97
2023-04-24T22:14:58.870Z,97758.66
2023-04-24T22:17:32.528Z,97759.94
2023-04-24T22:20:01.735Z,97743.97
2023-04-24T22:22:40.067Z,97759.63
2023-04-24T22:25:11.232Z,97759.94
2023-04-24T22:27:42.967Z,97766.59
2023-04-24T22:30:26.257Z,97767.09
2023-04-24T22:33:00.249Z,97770.84
2023-04-24T22:35:43.445Z,97750.47
2023-04-24T22:38:25.686Z,97789.53
2023-04-24T22:40:54.839Z,97778.16
2023-04-24T22:43:25.265Z,97782.56
2023-04-24T22:46:00.798Z,97782.34
2023-04-24T22:48:47.140Z,97774.41
2023-04-24T22:51:19.514Z,97772.72
2023-04-24T22:53:51.528Z,97769.47
2023-04-24T22:56:20.807Z,97764.78
2023-04-24T22:58:57.753Z,97764.97
2023-04-24T23:01:29.325Z,97755.19
2023-04-24T23:06:58.345Z,97757.78
2023-04-24T23:09:28.738Z,97760.06
2023-04-24T23:12:05.207Z,97761.19
2023-04-24T23:14:42.459Z,97767.19
2023-04-24T23:17:13.688Z,97769.97
2023-04-24T23:19:41.613Z,97755.63
2023-04-24T23:22:10.863Z,97761.81
2023-04-24T23:24:49.865Z,97776.63
2023-04-24T23:27:20.717Z,97773.25
2023-04-24T23:29:53.282Z,97781.75
2023-04-24T23:32:23.914Z,97755.50
2023-04-24T23:34:56.525Z,97780.69
2023-04-24T23:37:39.660Z,97778.56
2023-04-24T23:40:18.406Z,97777.94
2023-04-24T23:43:05.544Z,97765.72
2023-04-24T23:45:37.965Z,97749.59
2023-04-24T23:48:12.074Z,97780.19
2023-04-24T23:50:42.455Z,97761.66
2023-04-24T23:56:05.937Z,97789.97
2023-04-24T23:58:37.752Z,97778.59
